Time;durP1;ratioP1;P1;durP2;ratioP2;P2;SDS_P1;SDS_P2;PMS_P1;PMS_P2;Temp;Humidity;BMP_temperature;BMP_pressure;BME280_temperature;BME280_humidity;BME280_pressure;Samples;Min_cycle;Max_cycle;Signal;HPM_P1;HPM_P2
2023/10/25 00:01:15;;;;;;;37.90;20.23;;;;;;;10.10;100.00;98829.19;4248394;28;20238;-69
2023/10/25 00:03:42;;;;;;;43.03;21.33;;;;;;;10.13;100.00;98819.88;4250720;28;20316;-69
2023/10/25 00:06:09;;;;;;;39.03;21.33;;;;;;;10.10;100.00;98810.25;4246790;28;20404;-69
2023/10/25 00:08:35;;;;;;;41.87;21.50;;;;;;;10.07;100.00;98802.53;4243360;28;20377;-71
2023/10/25 00:11:08;;;;;;;40.33;19.87;;;;;;;10.15;100.00;98790.78;4252955;28;20238;-72
2023/10/25 00:13:35;;;;;;;37.40;21.30;;;;;;;10.04;100.00;98792.09;4246368;28;20234;-75
2023/10/25 00:16:03;;;;;;;42.50;21.37;;;;;;;10.04;100.00;98799.38;4249194;28;20352;-73
2023/10/25 00:18:30;;;;;;;42.20;22.30;;;;;;;10.04;100.00;98788.56;4260598;28;21040;-74
2023/10/25 00:20:57;;;;;;;41.27;21.67;;;;;;;10.05;100.00;98796.47;4245210;28;20226;-77
2023/10/25 00:23:24;;;;;;;41.77;21.47;;;;;;;9.97;100.00;98794.69;4260777;28;20638;-74
2023/10/25 00:25:51;;;;;;;39.27;21.67;;;;;;;9.91;100.00;98784.59;4253409;28;21104;-74
2023/10/25 00:28:18;;;;;;;45.53;21.80;;;;;;;9.92;100.00;98780.06;4260962;28;20903;-73
2023/10/25 00:30:46;;;;;;;41.63;21.97;;;;;;;9.84;100.00;98770.16;4246804;28;20682;-76
2023/10/25 00:33:13;;;;;;;38.67;21.57;;;;;;;9.86;100.00;98761.88;4245931;28;21702;-74
2023/10/25 00:35:40;;;;;;;48.37;23.47;;;;;;;9.82;100.00;98759.53;4256564;28;20908;-74
2023/10/25 00:38:07;;;;;;;39.67;22.67;;;;;;;9.85;100.00;98757.50;4251216;28;20238;-74
2023/10/25 00:40:34;;;;;;;45.10;22.77;;;;;;;9.87;100.00;98752.72;4244471;28;20222;-72
2023/10/25 00:43:19;;;;;;;45.70;23.17;;;;;;;9.81;100.00;98746.22;4253296;28;26298;-72
2023/10/25 00:46:12;;;;;;;45.53;22.47;;;;;;;9.80;100.00;98742.66;4256473;28;20221;-74
2023/10/25 00:48:49;;;;;;;45.73;23.57;;;;;;;9.79;100.00;98740.97;4251301;28;20582;-72
2023/10/25 00:51:19;;;;;;;45.17;23.23;;;;;;;9.82;100.00;98739.75;4240043;28;20437;-75
2023/10/25 00:53:49;;;;;;;51.27;25.30;;;;;;;9.83;100.00;98736.03;4245074;28;20241;-75
2023/10/25 00:56:17;;;;;;;45.00;23.47;;;;;;;9.79;100.00;98737.44;4242847;28;20755;-72
2023/10/25 00:58:47;;;;;;;46.60;23.53;;;;;;;9.81;100.00;98730.81;4237979;28;22259;-72
2023/10/25 01:01:17;;;;;;;47.00;22.83;;;;;;;9.82;100.00;98723.53;4254916;28;20336;-73
2023/10/25 01:03:44;;;;;;;43.13;22.80;;;;;;;9.83;100.00;98723.38;4235871;28;20310;-73
2023/10/25 01:06:12;;;;;;;49.27;23.00;;;;;;;9.80;100.00;98720.22;4253877;28;20310;-72
2023/10/25 01:08:40;;;;;;;45.23;22.70;;;;;;;9.80;100.00;98720.22;4247189;28;21725;-76
2023/10/25 01:11:06;;;;;;;42.33;23.23;;;;;;;9.80;100.00;98709.41;4245075;28;20239;-75
2023/10/25 01:13:34;;;;;;;45.17;25.03;;;;;;;9.83;100.00;98706.31;4249818;28;20239;-70
2023/10/25 01:16:01;;;;;;;45.67;24.03;;;;;;;9.87;100.00;98702.22;4232850;28;20227;-72
2023/10/25 01:18:28;;;;;;;49.80;23.50;;;;;;;9.78;100.00;98693.34;4248951;28;20304;-73
2023/10/25 01:20:55;;;;;;;44.63;23.90;;;;;;;9.76;100.00;98691.84;4254678;28;20230;-73
2023/10/25 01:23:22;;;;;;;44.97;23.80;;;;;;;9.78;100.00;98685.25;4233688;28;20296;-72
2023/10/25 01:25:48;;;;;;;44.90;23.00;;;;;;;9.78;100.00;98681.72;4261824;28;20311;-71
2023/10/25 01:28:15;;;;;;;47.87;23.83;;;;;;;9.86;100.00;98678.09;4245437;28;20239;-71
2023/10/25 01:30:41;;;;;;;46.10;23.77;;;;;;;9.78;100.00;98673.59;4234342;28;22183;-71
2023/10/25 01:33:08;;;;;;;51.97;24.17;;;;;;;9.81;100.00;98663.25;4253852;28;20324;-70
2023/10/25 01:35:35;;;;;;;42.13;22.60;;;;;;;9.82;100.00;98664.09;4246248;28;20257;-71
2023/10/25 01:38:02;;;;;;;50.83;24.47;;;;;;;9.79;100.00;98659.06;4253750;28;20233;-72
2023/10/25 01:40:30;;;;;;;43.67;23.33;;;;;;;9.80;100.00;98644.53;4229422;28;25161;-70
2023/10/25 01:42:56;;;;;;;45.77;23.83;;;;;;;9.78;100.00;98641.19;4242522;28;23835;-72
2023/10/25 01:45:23;;;;;;;49.80;24.73;;;;;;;9.74;100.00;98637.19;4249990;28;20242;-71
2023/10/25 01:47:50;;;;;;;48.50;23.50;;;;;;;9.85;100.00;98633.19;4258805;28;21129;-71
2023/10/25 01:50:18;;;;;;;55.57;24.97;;;;;;;9.78;100.00;98625.78;4250216;28;20311;-74
2023/10/25 01:52:45;;;;;;;48.47;23.93;;;;;;;9.79;100.00;98621.25;4250844;28;20230;-76
2023/10/25 01:55:11;;;;;;;55.07;24.03;;;;;;;9.73;100.00;98617.41;4228473;28;20238;-72
2023/10/25 01:57:38;;;;;;;50.83;24.40;;;;;;;9.71;100.00;98615.94;4251270;28;21641;-72
2023/10/25 02:00:06;;;;;;;48.70;24.27;;;;;;;9.76;100.00;98611.66;4246394;28;20237;-71
2023/10/25 02:02:34;;;;;;;46.17;25.17;;;;;;;9.77;100.00;98607.06;4237687;28;20420;-72
2023/10/25 02:05:01;;;;;;;46.47;23.70;;;;;;;9.79;100.00;98603.16;4248351;28;21674;-72
2023/10/25 02:07:27;;;;;;;54.23;26.17;;;;;;;9.70;100.00;98606.16;4250129;28;20230;-72
2023/10/25 02:09:54;;;;;;;52.83;25.83;;;;;;;9.73;100.00;98603.09;4234784;28;20343;-73
2023/10/25 02:12:20;;;;;;;49.37;25.10;;;;;;;9.77;100.00;98585.44;4226890;28;20244;-72
2023/10/25 02:14:47;;;;;;;50.27;25.63;;;;;;;9.74;100.00;98588.56;4249861;28;20359;-71
2023/10/25 02:17:14;;;;;;;50.33;25.27;;;;;;;9.82;100.00;98581.16;4251478;28;20226;-73
2023/10/25 02:19:41;;;;;;;56.83;26.07;;;;;;;9.79;100.00;98584.22;4254439;28;20284;-70
2023/10/25 02:22:08;;;;;;;51.73;26.80;;;;;;;9.71;100.00;98584.34;4237287;28;21143;-72
2023/10/25 02:24:34;;;;;;;46.40;25.77;;;;;;;9.81;100.00;98573.25;4241796;28;20315;-72
2023/10/25 02:27:01;;;;;;;49.47;25.93;;;;;;;9.78;100.00;98579.84;4249309;28;20234;-72
2023/10/25 02:29:28;;;;;;;55.93;27.20;;;;;;;9.72;100.00;98571.69;4250497;28;20259;-73
2023/10/25 02:31:54;;;;;;;62.70;26.13;;;;;;;9.71;100.00;98578.94;4250959;28;21627;-70
2023/10/25 02:34:21;;;;;;;53.00;26.33;;;;;;;9.80;100.00;98572.41;4248152;28;20295;-70
2023/10/25 02:36:47;;;;;;;50.47;26.17;;;;;;;9.79;100.00;98578.81;4250947;28;20249;-71
2023/10/25 02:39:14;;;;;;;52.47;27.13;;;;;;;9.80;100.00;98569.69;4246873;28;20568;-74
2023/10/25 02:41:41;;;;;;;48.17;24.67;;;;;;;9.84;100.00;98570.16;4259309;28;20465;-71
2023/10/25 02:44:07;;;;;;;52.70;24.90;;;;;;;9.78;100.00;98569.03;4247313;28;22159;-71
2023/10/25 02:46:34;;;;;;;58.50;26.93;;;;;;;9.76;100.00;98565.72;4254775;28;20717;-69
2023/10/25 02:49:01;;;;;;;59.47;27.43;;;;;;;9.74;100.00;98554.25;4252099;28;21193;-71
2023/10/25 02:51:27;;;;;;;57.53;27.90;;;;;;;9.78;100.00;98558.22;4242786;28;22782;-72
2023/10/25 02:53:54;;;;;;;53.30;26.90;;;;;;;9.75;100.00;98549.66;4247880;28;20618;-71
2023/10/25 02:56:20;;;;;;;54.20;27.50;;;;;;;9.77;100.00;98550.31;4251547;28;20223;-72
2023/10/25 02:58:47;;;;;;;52.30;26.27;;;;;;;9.83;100.00;98541.47;4254023;28;20246;-72
2023/10/25 03:01:23;;;;;;;56.30;27.27;;;;;;;9.83;100.00;98544.16;4253661;28;20234;-71
2023/10/25 03:03:51;;;;;;;47.83;25.60;;;;;;;9.91;100.00;98540.53;4243847;28;20292;-71
2023/10/25 03:06:18;;;;;;;53.40;26.30;;;;;;;9.87;100.00;98525.69;4241080;28;20234;-71
2023/10/25 03:08:44;;;;;;;53.80;27.20;;;;;;;9.90;100.00;98534.25;4248921;28;20999;-70
2023/10/25 03:11:11;;;;;;;56.37;26.73;;;;;;;9.89;100.00;98513.69;4250099;28;20269;-69
2023/10/25 03:13:37;;;;;;;55.47;27.90;;;;;;;9.86;100.00;98515.94;4228462;28;21151;-70
2023/10/25 03:16:05;;;;;;;58.17;29.13;;;;;;;9.80;100.00;98514.84;4253484;28;24998;-69
2023/10/25 03:18:34;;;;;;;60.13;28.00;;;;;;;9.88;100.00;98514.72;4252710;28;20230;-71
2023/10/25 03:21:02;;;;;;;53.30;28.23;;;;;;;9.83;100.00;98514.44;4247372;28;20255;-72
2023/10/25 03:23:32;;;;;;;53.97;27.90;;;;;;;9.88;100.00;98516.56;4241903;28;20240;-71
2023/10/25 03:26:04;;;;;;;57.27;27.90;;;;;;;9.88;100.00;98506.63;4239426;28;20315;-70
2023/10/25 03:28:31;;;;;;;52.83;26.27;;;;;;;9.96;100.00;98498.38;4251212;28;20993;-70
2023/10/25 03:31:10;;;;;;;57.07;28.27;;;;;;;9.89;100.00;98508.28;4247751;28;20234;-72
2023/10/25 03:33:37;;;;;;;56.00;29.23;;;;;;;9.83;100.00;98501.78;4230628;28;20240;-71
2023/10/25 03:36:04;;;;;;;58.30;29.17;;;;;;;9.90;100.00;98501.00;4249214;28;20345;-71
2023/10/25 03:38:30;;;;;;;52.67;27.80;;;;;;;9.87;100.00;98493.28;4245963;28;20256;-70
2023/10/25 03:41:05;;;;;;;52.47;28.37;;;;;;;9.94;100.00;98492.34;4248553;28;20268;-71
2023/10/25 03:43:34;;;;;;;53.00;28.53;;;;;;;9.93;100.00;98495.22;4255080;28;20242;-69
2023/10/25 03:46:05;;;;;;;54.30;28.57;;;;;;;9.98;100.00;98493.59;4245296;28;20242;-72
2023/10/25 03:48:34;;;;;;;49.63;26.83;;;;;;;9.94;100.00;98494.19;4243196;28;21559;-71
2023/10/25 03:51:05;;;;;;;51.93;27.77;;;;;;;9.92;100.00;98482.75;4250816;28;20382;-71
2023/10/25 03:53:35;;;;;;;55.20;28.73;;;;;;;9.87;100.00;98485.16;4258380;28;20229;-68
2023/10/25 03:56:02;;;;;;;54.20;29.10;;;;;;;9.94;100.00;98486.06;4245505;28;22703;-71
2023/10/25 03:58:29;;;;;;;61.63;29.33;;;;;;;9.88;100.00;98476.88;4250148;28;20230;-70
2023/10/25 04:01:00;;;;;;;53.30;29.33;;;;;;;9.95;100.00;98475.09;4252457;28;21381;-70
2023/10/25 04:03:28;;;;;;;53.37;28.63;;;;;;;9.91;100.00;98462.97;4240630;28;20891;-72
2023/10/25 04:05:56;;;;;;;51.10;30.20;;;;;;;9.87;100.00;98458.13;4252782;28;20246;-69
2023/10/25 04:08:23;;;;;;;60.27;29.87;;;;;;;9.89;100.00;98459.66;4250411;28;20263;-71
2023/10/25 04:10:57;;;;;;;54.63;29.43;;;;;;;9.92;100.00;98453.84;4243082;28;22178;-71
2023/10/25 04:13:25;;;;;;;54.53;30.80;;;;;;;10.01;100.00;98448.31;4232175;28;22033;-70
2023/10/25 04:16:02;;;;;;;57.07;29.83;;;;;;;9.91;100.00;98435.13;4255835;28;20246;-72
2023/10/25 04:18:30;;;;;;;57.27;30.73;;;;;;;9.90;100.00;98442.38;4230178;28;20234;-72
2023/10/25 04:20:57;;;;;;;61.07;31.67;;;;;;;9.89;100.00;98431.75;4241584;28;20242;-70
2023/10/25 04:23:25;;;;;;;58.33;30.87;;;;;;;9.88;100.00;98424.69;4251168;28;20238;-71
2023/10/25 04:25:52;;;;;;;57.40;30.93;;;;;;;9.99;100.00;98418.78;4248994;28;22933;-70
2023/10/25 04:28:19;;;;;;;55.80;30.67;;;;;;;9.92;100.00;98421.41;4245567;28;20226;-70
2023/10/25 04:30:46;;;;;;;53.17;28.93;;;;;;;9.99;100.00;98424.19;4252006;28;20230;-70
2023/10/25 04:33:13;;;;;;;56.60;30.67;;;;;;;9.94;100.00;98413.09;4234898;28;23255;-70
2023/10/25 04:35:41;;;;;;;54.30;29.53;;;;;;;9.93;100.00;98409.56;4235156;28;23497;-68
2023/10/25 04:38:08;;;;;;;50.43;29.77;;;;;;;9.97;100.00;98412.72;4248455;28;21129;-69
2023/10/25 04:40:35;;;;;;;53.27;30.37;;;;;;;10.01;100.00;98413.16;4242053;28;21933;-69
2023/10/25 04:43:02;;;;;;;53.63;28.73;;;;;;;9.98;100.00;98404.41;4244967;28;22284;-73
2023/10/25 04:45:29;;;;;;;51.13;29.57;;;;;;;9.98;100.00;98404.41;4243670;28;21121;-71
2023/10/25 04:47:55;;;;;;;55.83;31.00;;;;;;;10.02;100.00;98402.16;4250104;28;20644;-71
2023/10/25 04:50:22;;;;;;;51.63;29.10;;;;;;;9.98;100.00;98390.88;4254029;28;21223;-70
2023/10/25 04:52:49;;;;;;;56.93;31.90;;;;;;;9.87;100.00;98390.56;4253201;28;20535;-71
2023/10/25 04:55:15;;;;;;;52.00;29.80;;;;;;;9.97;100.00;98388.38;4249401;28;21104;-70
2023/10/25 04:57:42;;;;;;;57.13;30.40;;;;;;;9.87;100.00;98377.91;4247427;28;20346;-69
2023/10/25 05:00:09;;;;;;;51.87;30.70;;;;;;;9.99;100.00;98380.94;4250313;28;20318;-71
2023/10/25 05:02:40;;;;;;;55.37;31.40;;;;;;;9.89;100.00;98392.09;4257243;28;21076;-71
2023/10/25 05:05:08;;;;;;;51.47;30.00;;;;;;;9.96;100.00;98389.41;4256134;28;20755;-71
2023/10/25 05:07:37;;;;;;;54.33;30.23;;;;;;;9.98;100.00;98390.06;4248363;28;21798;-70
2023/10/25 05:10:09;;;;;;;51.53;29.90;;;;;;;10.02;100.00;98382.41;4251423;28;20303;-71
2023/10/25 05:12:39;;;;;;;56.27;29.90;;;;;;;9.98;100.00;98387.38;4250941;28;20237;-70
2023/10/25 05:15:10;;;;;;;45.77;28.20;;;;;;;9.99;100.00;98376.34;4249819;28;20237;-73
2023/10/25 05:17:38;;;;;;;60.33;31.03;;;;;;;9.99;100.00;98381.75;4245328;28;21115;-73
2023/10/25 05:20:06;;;;;;;50.97;28.93;;;;;;;10.03;100.00;98374.09;4240076;28;20489;-74
2023/10/25 05:22:38;;;;;;;53.37;30.43;;;;;;;10.02;100.00;98377.00;4251718;28;20708;-72
2023/10/25 05:25:06;;;;;;;57.47;31.50;;;;;;;9.99;100.00;98372.81;4245516;28;20233;-76
2023/10/25 05:27:35;;;;;;;50.20;29.30;;;;;;;9.98;100.00;98371.97;4249828;28;20310;-72
2023/10/25 05:30:04;;;;;;;49.57;29.20;;;;;;;9.91;100.00;98375.66;4246238;28;20233;-70
2023/10/25 05:32:33;;;;;;;49.57;29.57;;;;;;;9.92;100.00;98374.63;4245601;28;23061;-71
2023/10/25 05:35:03;;;;;;;49.63;30.27;;;;;;;9.99;100.00;98365.53;4253749;28;20277;-72
2023/10/25 05:37:30;;;;;;;53.87;28.63;;;;;;;9.99;100.00;98365.53;4245150;28;20231;-70
2023/10/25 05:39:57;;;;;;;50.83;29.00;;;;;;;9.92;100.00;98375.47;4250174;28;20238;-69
2023/10/25 05:42:24;;;;;;;47.20;27.73;;;;;;;9.97;100.00;98366.78;4247794;28;20248;-70
2023/10/25 05:44:53;;;;;;;52.50;28.67;;;;;;;9.93;100.00;98370.91;4256998;28;21296;-69
2023/10/25 05:47:22;;;;;;;47.70;27.53;;;;;;;10.03;100.00;98371.38;4238829;28;20380;-72
2023/10/25 05:49:49;;;;;;;45.87;26.80;;;;;;;9.99;100.00;98370.94;4249712;28;21719;-71
2023/10/25 05:52:17;;;;;;;43.33;26.57;;;;;;;10.01;100.00;98373.44;4253625;28;20242;-69
2023/10/25 05:54:44;;;;;;;45.03;26.63;;;;;;;9.98;100.00;98371.16;4259463;28;20233;-70
2023/10/25 05:57:12;;;;;;;39.87;25.57;;;;;;;10.08;100.00;98368.94;4250098;28;20282;-70
2023/10/25 05:59:40;;;;;;;41.00;24.83;;;;;;;10.03;100.00;98365.97;4255170;28;20300;-68
2023/10/25 06:02:11;;;;;;;39.43;23.27;;;;;;;10.04;100.00;98373.06;4257675;28;20283;-69
2023/10/25 06:04:39;;;;;;;38.73;24.70;;;;;;;10.01;100.00;98365.34;4263758;28;20235;-67
2023/10/25 06:07:07;;;;;;;45.50;25.77;;;;;;;10.05;100.00;98361.22;4249627;28;20246;-69
2023/10/25 06:09:35;;;;;;;46.43;24.73;;;;;;;10.02;100.00;98358.06;4271078;28;21800;-69
2023/10/25 06:12:02;;;;;;;42.17;25.00;;;;;;;9.94;100.00;98368.00;4264636;28;22153;-67
2023/10/25 06:14:30;;;;;;;41.13;24.70;;;;;;;9.97;100.00;98356.78;4250019;28;20685;-70
2023/10/25 06:16:58;;;;;;;37.87;23.97;;;;;;;9.93;100.00;98352.81;4273616;28;21096;-69
2023/10/25 06:19:26;;;;;;;38.00;23.47;;;;;;;10.02;100.00;98352.69;4267282;28;21773;-68
2023/10/25 06:21:54;;;;;;;39.57;23.30;;;;;;;9.96;100.00;98349.72;4264759;28;20310;-69
2023/10/25 06:24:21;;;;;;;40.20;25.07;;;;;;;9.95;100.00;98353.47;4249981;28;20692;-68
2023/10/25 06:26:48;;;;;;;39.47;24.60;;;;;;;9.99;100.00;98345.78;4258984;28;21104;-68
2023/10/25 06:29:15;;;;;;;41.47;23.80;;;;;;;10.04;100.00;98347.91;4248998;28;23015;-70
2023/10/25 06:31:44;;;;;;;38.57;23.23;;;;;;;10.11;100.00;98354.22;4263956;28;20234;-69
2023/10/25 06:34:11;;;;;;;34.30;21.53;;;;;;;10.09;100.00;98350.84;4241948;28;20809;-69
2023/10/25 06:36:38;;;;;;;35.90;22.33;;;;;;;10.14;100.00;98353.81;4229654;28;20238;-69
2023/10/25 06:39:08;;;;;;;30.80;20.47;;;;;;;10.15;100.00;98347.38;4247090;28;22126;-68
2023/10/25 06:41:36;;;;;;;36.00;22.13;;;;;;;10.08;100.00;98347.31;4265684;28;25505;-69
2023/10/25 06:44:04;;;;;;;31.93;20.73;;;;;;;10.09;100.00;98357.09;4244528;28;20231;-67
2023/10/25 06:46:32;;;;;;;31.20;21.27;;;;;;;10.12;100.00;98345.91;4244131;28;25777;-70
2023/10/25 06:49:01;;;;;;;39.47;21.83;;;;;;;10.20;100.00;98341.38;4257530;28;21812;-69
2023/10/25 06:51:28;;;;;;;32.57;21.03;;;;;;;10.23;100.00;98354.50;4255683;28;20237;-67
2023/10/25 06:53:55;;;;;;;34.33;20.93;;;;;;;10.24;100.00;98351.59;4243398;28;20249;-67
2023/10/25 06:56:22;;;;;;;31.47;19.97;;;;;;;10.15;100.00;98344.66;4253835;28;21627;-69
2023/10/25 06:58:49;;;;;;;28.97;18.87;;;;;;;10.20;100.00;98341.38;4239340;28;20265;-69
2023/10/25 07:01:20;;;;;;;32.37;20.57;;;;;;;10.11;100.00;98341.50;4247566;28;20424;-68
2023/10/25 07:03:49;;;;;;;32.70;20.83;;;;;;;10.13;100.00;98335.91;4246067;28;20632;-68
2023/10/25 07:06:17;;;;;;;31.67;21.13;;;;;;;10.11;100.00;98335.28;4251887;28;20310;-69
2023/10/25 07:08:45;;;;;;;30.63;20.10;;;;;;;10.13;100.00;98339.47;4267718;28;21744;-71
2023/10/25 07:11:11;;;;;;;32.90;20.17;;;;;;;10.19;100.00;98335.16;4249978;28;25591;-69
2023/10/25 07:13:38;;;;;;;34.30;20.23;;;;;;;10.14;100.00;98338.44;4254519;28;21401;-70
2023/10/25 07:16:07;;;;;;;31.60;19.37;;;;;;;10.29;100.00;98334.78;4244781;28;20226;-71
2023/10/25 07:18:34;;;;;;;33.17;19.23;;;;;;;10.25;100.00;98338.91;4250214;28;20338;-71
2023/10/25 07:21:05;;;;;;;34.73;20.43;;;;;;;10.20;100.00;98331.38;4238078;28;21154;-68
2023/10/25 07:23:32;;;;;;;28.97;18.47;;;;;;;10.28;100.00;98346.63;4251349;28;20455;-71
2023/10/25 07:25:59;;;;;;;31.97;20.00;;;;;;;10.15;100.00;98345.50;4245701;28;20296;-71
2023/10/25 07:28:26;;;;;;;34.17;20.50;;;;;;;10.18;100.00;98336.16;4251059;28;20272;-69
2023/10/25 07:30:53;;;;;;;33.67;19.90;;;;;;;10.15;100.00;98334.69;4255896;28;20242;-68
2023/10/25 07:33:21;;;;;;;26.53;18.10;;;;;;;10.18;100.00;98343.44;4245600;28;20373;-69
2023/10/25 07:35:48;;;;;;;30.93;20.00;;;;;;;10.15;100.00;98334.69;4262716;28;20237;-68
2023/10/25 07:38:15;;;;;;;31.60;18.83;;;;;;;10.17;100.00;98342.59;4239536;28;20276;-68
2023/10/25 07:40:42;;;;;;;31.47;18.37;;;;;;;10.18;100.00;98341.56;4245692;28;20235;-68
2023/10/25 07:43:09;;;;;;;32.03;19.23;;;;;;;10.21;100.00;98345.75;4253141;28;20964;-70
2023/10/25 07:45:36;;;;;;;30.67;19.60;;;;;;;10.21;100.00;98343.88;4271637;28;20237;-68
2023/10/25 07:48:03;;;;;;;28.83;18.27;;;;;;;10.30;100.00;98341.88;4270379;28;20308;-69
2023/10/25 07:50:31;;;;;;;30.73;19.90;;;;;;;10.29;100.00;98340.19;4256127;28;21166;-70
2023/10/25 07:52:58;;;;;;;29.93;18.53;;;;;;;10.36;100.00;98341.06;4276130;28;20246;-69
2023/10/25 07:55:25;;;;;;;27.47;18.37;;;;;;;10.37;100.00;98340.09;4247877;28;20389;-71
2023/10/25 07:57:54;;;;;;;30.33;18.13;;;;;;;10.35;100.00;98342.09;4252084;28;23348;-71
2023/10/25 08:00:24;;;;;;;28.87;17.60;;;;;;;10.49;100.00;98337.66;4240010;28;20229;-69
2023/10/25 08:02:51;;;;;;;27.77;17.33;;;;;;;10.40;100.00;98339.66;4245654;28;20234;-69
2023/10/25 08:05:17;;;;;;;25.97;17.07;;;;;;;10.43;100.00;98339.28;4247899;28;20315;-71
2023/10/25 08:07:47;;;;;;;24.90;17.13;;;;;;;10.48;100.00;98337.84;4247018;28;20347;-67
2023/10/25 08:10:14;;;;;;;23.23;15.33;;;;;;;10.46;100.00;98333.47;4260904;28;20424;-73
2023/10/25 08:12:40;;;;;;;28.03;16.97;;;;;;;10.30;100.00;98331.88;4245020;28;20284;-68
2023/10/25 08:15:07;;;;;;;22.83;16.17;;;;;;;10.33;100.00;98335.22;4244970;28;20226;-70
2023/10/25 08:17:34;;;;;;;21.93;15.33;;;;;;;10.42;100.00;98334.06;4246247;28;20236;-70
2023/10/25 08:20:02;;;;;;;25.93;16.73;;;;;;;10.45;100.00;98337.22;4241468;28;21100;-68
2023/10/25 08:22:29;;;;;;;23.93;16.30;;;;;;;10.46;100.00;98336.16;4246488;28;20242;-71
2023/10/25 08:24:56;;;;;;;25.93;16.90;;;;;;;10.42;100.00;98340.31;4241097;28;20227;-67
2023/10/25 08:27:22;;;;;;;23.53;15.43;;;;;;;10.48;100.00;98340.53;4243627;28;20235;-67
2023/10/25 08:29:49;;;;;;;26.43;15.70;;;;;;;10.43;100.00;98342.00;4238851;28;20271;-69
2023/10/25 08:32:16;;;;;;;24.60;14.80;;;;;;;10.44;100.00;98330.13;4246316;28;21629;-71
2023/10/25 08:34:46;;;;;;;22.73;15.23;;;;;;;10.32;100.00;98328.97;4250444;28;20300;-68
2023/10/25 08:37:13;;;;;;;22.10;14.73;;;;;;;10.42;100.00;98334.91;4230633;28;20242;-68
2023/10/25 08:39:42;;;;;;;23.30;14.77;;;;;;;10.52;100.00;98328.31;4252881;28;20226;-69
2023/10/25 08:42:14;;;;;;;24.10;15.47;;;;;;;10.44;100.00;98338.25;4246733;28;20238;-69
2023/10/25 08:44:41;;;;;;;21.70;14.17;;;;;;;10.53;100.00;98338.09;4250298;28;23579;-68
2023/10/25 08:47:11;;;;;;;29.53;14.77;;;;;;;10.53;100.00;98336.22;4251413;28;20238;-70
2023/10/25 08:49:38;;;;;;;21.47;13.53;;;;;;;10.46;100.00;98328.03;4235883;28;23021;-73
2023/10/25 08:52:06;;;;;;;21.23;13.83;;;;;;;10.62;100.00;98329.63;4246507;28;20230;-71
2023/10/25 08:54:36;;;;;;;22.93;13.93;;;;;;;10.65;100.00;98333.78;4242935;28;22618;-70
2023/10/25 08:57:07;;;;;;;21.23;13.73;;;;;;;10.63;100.00;98333.16;4253361;28;20301;-68
2023/10/25 08:59:45;;;;;;;19.93;13.30;;;;;;;10.57;100.00;98336.66;4243039;28;20231;-69
2023/10/25 09:02:13;;;;;;;19.37;13.40;;;;;;;10.60;100.00;98330.84;4247682;28;20271;-69
2023/10/25 09:05:02;;;;;;;18.57;13.07;;;;;;;10.65;100.00;98328.38;4246654;28;22008;-69
2023/10/25 09:07:30;;;;;;;18.20;12.43;;;;;;;10.65;100.00;98332.97;4246807;28;20303;-69
2023/10/25 09:09:57;;;;;;;16.07;11.63;;;;;;;10.66;100.00;98335.47;4250750;28;20234;-70
2023/10/25 09:12:25;;;;;;;21.40;12.67;;;;;;;10.53;100.00;98330.81;4251061;28;20503;-70
2023/10/25 09:14:52;;;;;;;20.67;12.50;;;;;;;10.65;100.00;98332.97;4253957;28;27207;-71
2023/10/25 09:17:19;;;;;;;17.93;11.90;;;;;;;10.59;100.00;98326.47;4243538;28;20258;-71
2023/10/25 09:19:48;;;;;;;17.83;12.00;;;;;;;10.65;100.00;98330.25;4249337;28;20238;-66
2023/10/25 09:22:25;;;;;;;17.27;11.70;;;;;;;10.51;100.00;98338.28;4251098;28;20246;-69
2023/10/25 09:24:59;;;;;;;17.87;11.37;;;;;;;10.52;100.00;98329.13;4245006;28;21368;-69
2023/10/25 09:27:26;;;;;;;17.83;11.83;;;;;;;10.56;100.00;98330.41;4242677;28;20299;-69
2023/10/25 09:30:06;;;;;;;15.90;10.87;;;;;;;10.65;100.00;98328.38;4261823;28;20248;-74
2023/10/25 09:32:37;;;;;;;16.97;11.10;;;;;;;10.64;100.00;98328.59;4247501;28;25110;-71
2023/10/25 09:35:06;;;;;;;18.73;11.90;;;;;;;10.55;100.00;98323.34;4238397;28;20234;-71
2023/10/25 09:37:32;;;;;;;18.00;12.27;;;;;;;10.59;100.00;98324.59;4252310;28;23128;-70
2023/10/25 09:39:59;;;;;;;20.77;13.07;;;;;;;10.59;100.00;98323.78;4240566;28;20436;-71
2023/10/25 09:42:28;;;;;;;16.50;11.83;;;;;;;10.68;100.00;98321.72;4249687;28;20230;-72
2023/10/25 09:45:01;;;;;;;18.27;11.93;;;;;;;10.82;100.00;98317.22;4249568;28;22051;-70
2023/10/25 09:47:32;;;;;;;16.47;11.40;;;;;;;10.85;100.00;98314.94;4254239;28;20607;-68
2023/10/25 09:50:16;;;;;;;14.07;10.50;;;;;;;10.78;100.00;98320.31;4251344;28;21094;-71
2023/10/25 09:52:48;;;;;;;14.10;10.10;;;;;;;10.80;100.00;98322.00;4251559;28;20303;-68
2023/10/25 09:55:28;;;;;;;13.20;9.27;;;;;;;10.66;100.00;98316.53;4249704;28;20239;-72
2023/10/25 09:57:57;;;;;;;12.57;8.97;;;;;;;10.83;100.00;98322.41;4245553;28;20303;-68
2023/10/25 10:00:24;;;;;;;11.20;8.57;;;;;;;10.75;100.00;98319.88;4256190;28;20242;-68
2023/10/25 10:03:06;;;;;;;16.20;9.13;;;;;;;10.77;100.00;98320.53;4250260;28;20354;-70
2023/10/25 10:05:58;;;;;;;13.07;8.70;;;;;;;10.67;100.00;98315.50;4229244;28;20238;-68
2023/10/25 10:08:39;;;;;;;11.07;8.17;;;;;;;10.71;100.00;98318.63;4257702;28;23182;-68
2023/10/25 10:11:11;;;;;;;11.37;8.60;;;;;;;10.73;100.00;98314.69;4255432;28;21602;-69
2023/10/25 10:13:38;;;;;;;10.23;7.53;;;;;;;10.80;100.00;98311.97;4263165;28;21379;-68
2023/10/25 10:16:09;;;;;;;11.47;7.97;;;;;;;10.86;100.00;98311.22;4246550;28;20315;-69
2023/10/25 10:18:38;;;;;;;12.13;8.20;;;;;;;10.74;100.00;98310.94;4261322;28;21567;-69
2023/10/25 10:21:09;;;;;;;12.47;7.70;;;;;;;10.84;100.00;98321.38;4244001;28;21432;-67
2023/10/25 10:23:38;;;;;;;12.70;7.83;;;;;;;10.86;100.00;98321.19;4244718;28;20653;-69
2023/10/25 10:26:08;;;;;;;10.83;6.50;;;;;;;10.92;100.00;98318.50;4247353;28;20269;-69
2023/10/25 10:28:47;;;;;;;8.23;6.03;;;;;;;10.97;100.00;98317.06;4266023;28;20319;-70
2023/10/25 10:31:14;;;;;;;10.70;6.83;;;;;;;10.97;100.00;98317.91;4237599;28;20288;-70
2023/10/25 10:33:43;;;;;;;10.23;6.60;;;;;;;10.87;100.00;98307.47;4272924;28;21200;-69
2023/10/25 10:36:10;;;;;;;11.13;7.40;;;;;;;10.92;100.00;98312.25;4262381;28;20493;-71
2023/10/25 10:39:15;;;;;;;7.47;5.80;;;;;;;10.99;100.00;98315.81;4251468;28;20234;-68
2023/10/25 10:41:43;;;;;;;9.33;6.43;;;;;;;10.89;100.00;98312.66;4258411;28;21585;-71
2023/10/25 10:44:13;;;;;;;11.37;6.63;;;;;;;10.99;100.00;98312.28;4256104;28;20316;-70
2023/10/25 10:47:00;;;;;;;11.70;7.00;;;;;;;11.00;100.00;98322.91;4251736;28;20229;-70
2023/10/25 10:49:30;;;;;;;13.37;7.57;;;;;;;11.07;100.00;98312.94;4250646;28;20602;-72
2023/10/25 10:51:57;;;;;;;20.53;9.20;;;;;;;11.01;100.00;98315.63;4259235;28;20337;-72
2023/10/25 10:54:24;;;;;;;9.37;6.97;;;;;;;10.97;100.00;98317.06;4228090;28;22300;-71
2023/10/25 10:56:51;;;;;;;11.27;6.53;;;;;;;10.87;100.00;98322.84;4255196;28;21165;-70
2023/10/25 10:59:18;;;;;;;9.83;5.90;;;;;;;10.82;100.00;98320.75;4238932;28;21928;-69
2023/10/25 11:01:45;;;;;;;10.23;6.27;;;;;;;10.80;100.00;98316.56;4252607;28;20499;-69
2023/10/25 11:04:11;;;;;;;7.73;5.67;;;;;;;10.95;100.00;98317.28;4240201;28;20229;-71
2023/10/25 11:06:39;;;;;;;9.03;6.30;;;;;;;10.88;100.00;98316.41;4250194;28;20268;-70
2023/10/25 11:09:08;;;;;;;8.90;6.40;;;;;;;10.81;100.00;98315.53;4261994;28;20338;-70
2023/10/25 11:11:35;;;;;;;9.33;5.80;;;;;;;10.87;100.00;98318.28;4250019;28;22965;-69
2023/10/25 11:14:02;;;;;;;11.40;6.57;;;;;;;10.93;100.00;98317.47;4251524;28;20246;-69
2023/10/25 11:16:29;;;;;;;8.17;5.87;;;;;;;10.94;100.00;98323.72;4254785;28;20253;-69
2023/10/25 11:19:07;;;;;;;8.17;5.70;;;;;;;11.00;100.00;98322.09;4250342;28;20576;-68
2023/10/25 11:21:34;;;;;;;7.47;5.93;;;;;;;11.07;100.00;98322.94;4248733;28;20311;-70